Time;durP1;ratioP1;P1;durP2;ratioP2;P2;SDS_P1;SDS_P2;PMS_P1;PMS_P2;Temp;Humidity;BMP_temperature;BMP_pressure;BME280_temperature;BME280_humidity;BME280_pressure;Samples;Min_cycle;Max_cycle;Signal;HPM_P1;HPM_P2
2022/08/29 00:06:38;;;;;;;11.50;5.90;;;17.90;99.90;;;;;;20998247;22;20342;-86
2022/08/29 00:16:39;;;;;;;8.43;6.13;;;17.90;99.90;;;;;;20889397;28;20045;-86
2022/08/29 00:26:40;;;;;;;9.07;6.13;;;17.80;99.90;;;;;;20888779;28;20103;-85
2022/08/29 00:36:41;;;;;;;10.93;6.63;;;17.80;99.90;;;;;;20872159;28;20044;-85
2022/08/29 00:46:42;;;;;;;8.80;5.70;;;17.70;99.90;;;;;;20871844;28;20651;-86
2022/08/29 00:56:44;;;;;;;11.43;5.90;;;18.00;99.90;;;;;;20870368;28;20460;-86
2022/08/29 01:06:45;;;;;;;9.20;6.45;;;17.90;99.90;;;;;;20885895;28;20048;-86
2022/08/29 01:16:47;;;;;;;9.43;6.30;;;17.90;99.90;;;;;;20868818;28;20033;-86
2022/08/29 01:26:48;;;;;;;11.43;6.03;;;17.80;99.90;;;;;;20885463;28;20048;-86
2022/08/29 01:37:00;;;;;;;9.40;6.10;;;17.60;99.90;;;;;;20885400;28;20041;-85
2022/08/29 01:47:01;;;;;;;12.93;7.10;;;17.50;99.90;;;;;;20869728;28;20636;-86
2022/08/29 01:57:02;;;;;;;9.93;6.20;;;17.20;99.90;;;;;;20885009;28;20132;-85
2022/08/29 02:07:03;;;;;;;8.20;5.97;;;17.10;99.90;;;;;;20884101;28;20338;-86
2022/08/29 02:17:06;;;;;;;9.60;6.70;;;17.10;99.90;;;;;;20883345;28;20088;-85
2022/08/29 02:27:08;;;;;;;12.27;7.43;;;17.10;99.90;;;;;;20876047;28;20288;-86
2022/08/29 02:37:09;;;;;;;14.32;7.38;;;17.20;99.90;;;;;;20915101;28;20037;-86
2022/08/29 02:47:10;;;;;;;11.07;6.78;;;17.00;99.90;;;;;;20879542;28;20045;-86
2022/08/29 02:57:11;;;;;;;8.70;6.23;;;16.70;99.90;;;;;;20879151;28;20047;-86
2022/08/29 03:07:12;;;;;;;10.63;6.27;;;16.70;99.90;;;;;;20894628;28;20686;-86
2022/08/29 03:17:13;;;;;;;12.02;6.22;;;16.60;99.90;;;;;;20877246;28;20041;-86
2022/08/29 03:27:14;;;;;;;10.00;6.30;;;16.50;99.90;;;;;;20893089;28;20059;-86
2022/08/29 03:37:15;;;;;;;10.90;6.60;;;16.20;99.90;;;;;;20874616;28;20041;-85
2022/08/29 03:47:16;;;;;;;13.97;8.40;;;16.10;99.90;;;;;;20875195;28;20413;-86
2022/08/29 03:57:17;;;;;;;11.00;7.07;;;16.10;99.90;;;;;;20891244;28;20120;-86
2022/08/29 04:07:18;;;;;;;12.50;7.73;;;15.90;99.90;;;;;;20872540;28;20033;-85
2022/08/29 04:17:18;;;;;;;14.70;7.70;;;15.90;99.90;;;;;;20905282;28;20091;-85
2022/08/29 04:27:19;;;;;;;12.77;6.60;;;15.90;99.90;;;;;;20886989;28;20461;-85
2022/08/29 04:37:20;;;;;;;13.13;7.87;;;15.90;99.90;;;;;;20872039;28;20486;-85
2022/08/29 04:47:21;;;;;;;11.47;7.50;;;15.90;99.90;;;;;;20870805;28;20094;-87
2022/08/29 04:57:23;;;;;;;16.70;9.03;;;16.00;99.90;;;;;;20886448;28;20049;-86
2022/08/29 05:07:25;;;;;;;12.38;7.90;;;16.00;99.90;;;;;;20883635;28;20132;-86
2022/08/29 05:17:27;;;;;;;12.75;7.70;;;16.00;99.90;;;;;;20869775;28;20048;-87
2022/08/29 05:27:27;;;;;;;10.67;6.50;;;16.10;99.90;;;;;;20885007;28;20041;-85
2022/08/29 05:37:28;;;;;;;12.00;7.97;;;16.10;99.90;;;;;;20868947;28;20133;-84
2022/08/29 05:47:30;;;;;;;16.73;8.50;;;16.30;99.90;;;;;;20886527;28;20040;-85
2022/08/29 05:57:31;;;;;;;10.07;7.70;;;16.60;99.90;;;;;;20874945;28;20037;-84
2022/08/29 06:07:32;;;;;;;13.47;7.57;;;17.10;99.90;;;;;;21008892;22;20202;-76
2022/08/29 06:17:34;;;;;;;12.77;7.60;;;17.60;99.90;;;;;;21087235;28;20055;-75
2022/08/29 06:27:35;;;;;;;13.23;7.53;;;18.20;99.90;;;;;;21086601;28;20425;-77
2022/08/29 06:37:35;;;;;;;13.27;8.47;;;18.60;99.90;;;;;;21085480;28;20056;-77
2022/08/29 06:47:36;;;;;;;21.63;7.70;;;18.90;99.90;;;;;;21066415;28;20067;-76
2022/08/29 06:57:41;;;;;;;9.50;7.10;;;19.80;99.90;;;;;;21083739;28;20051;-76
2022/08/29 07:07:42;;;;;;;9.50;6.93;;;20.30;99.90;;;;;;21081842;28;20042;-77
2022/08/29 07:17:43;;;;;;;12.00;7.03;;;20.60;99.90;;;;;;21081952;28;20052;-77
2022/08/29 07:27:45;;;;;;;10.23;6.97;;;20.80;99.90;;;;;;21062925;28;20048;-77
2022/08/29 07:37:46;;;;;;;11.35;7.45;;;21.10;99.90;;;;;;21080148;28;20039;-77
2022/08/29 07:47:46;;;;;;;11.90;6.20;;;21.70;99.90;;;;;;21044603;28;20044;-77
2022/08/29 07:57:52;;;;;;;12.53;5.40;;;22.90;99.90;;;;;;21079547;28;20054;-77
2022/08/29 08:07:53;;;;;;;9.35;5.57;;;23.80;99.90;;;;;;21077735;28;20036;-78
2022/08/29 08:17:54;;;;;;;;;;;24.40;99.90;;;;;;21077194;28;20043;-77
2022/08/29 08:27:55;;;;;;;10.47;4.47;;;24.90;99.90;;;;;;21076617;28;20395;-77
2022/08/29 08:37:56;;;;;;;5.68;4.00;;;24.90;99.90;;;;;;21076814;28;20298;-77
2022/08/29 08:48:21;;;;;;;7.72;4.45;;;25.40;99.90;;;;;;21077002;28;20032;-77
2022/08/29 08:58:25;;;;;;;8.23;4.68;;;26.10;99.90;;;;;;21077851;28;20048;-78
2022/08/29 09:08:42;;;;;;;6.45;3.95;;;25.20;99.90;;;;;;21077378;28;20043;-77
2022/08/29 09:18:43;;;;;;;8.25;4.05;;;26.70;99.90;;;;;;21083054;28;20036;-78
2022/08/29 09:28:44;;;;;;;5.85;3.80;;;26.90;99.90;;;;;;21083817;28;20123;-78
2022/08/29 09:38:45;;;;;;;5.32;3.58;;;27.60;99.90;;;;;;21098854;28;20044;-78
2022/08/29 09:48:52;;;;;;;4.03;3.03;;;27.90;99.90;;;;;;21083728;28;20040;-78
2022/08/29 09:59:09;;;;;;;6.88;3.05;;;28.10;99.90;;;;;;21082844;28;20062;-78
2022/08/29 10:09:26;;;;;;;4.03;3.40;;;27.20;99.90;;;;;;21098338;28;20043;-77
2022/08/29 10:19:28;;;;;;;5.82;2.90;;;28.90;99.90;;;;;;21096683;28;20051;-78
2022/08/29 10:29:44;;;;;;;5.65;3.20;;;29.50;99.90;;;;;;21095597;28;20099;-77
2022/08/29 10:39:55;;;;;;;7.45;2.83;;;28.20;99.90;;;;;;21074671;28;20089;-79
2022/08/29 10:50:19;;;;;;;7.03;3.15;;;29.70;99.90;;;;;;21100017;28;20044;-78
2022/08/29 11:00:24;;;;;;;3.83;2.78;;;29.50;99.90;;;;;;21099995;28;20099;-78
2022/08/29 11:10:31;;;;;;;3.28;2.60;;;31.00;99.90;;;;;;21095707;28;20123;-77
2022/08/29 11:20:39;;;;;;;6.63;3.22;;;29.60;99.90;;;;;;21096446;28;20494;-77
2022/08/29 11:31:23;;;;;;;3.75;2.42;;;29.20;99.90;;;;;;21095610;28;20043;-79
2022/08/29 11:41:31;;;;;;;5.50;2.60;;;30.70;99.90;;;;;;21095687;28;20032;-78
2022/08/29 11:51:40;;;;;;;5.80;2.65;;;31.30;99.90;;;;;;21094711;28;20047;-77
2022/08/29 12:01:55;;;;;;;4.45;2.80;;;31.50;99.90;;;;;;21111473;22;20052;-84
2022/08/29 12:12:04;;;;;;;5.43;2.60;;;31.60;99.90;;;;;;20973607;28;20497;-82
2022/08/29 12:22:06;;;;;;;3.30;2.23;;;31.40;99.90;;;;;;20972814;28;20097;-83
2022/08/29 12:32:30;;;;;;;4.75;2.75;;;32.00;99.90;;;;;;20973193;28;20049;-83
2022/08/29 12:43:09;;;;;;;4.00;2.92;;;32.20;99.90;;;;;;20971442;28;20040;-82
2022/08/29 12:53:34;;;;;;;8.25;2.53;;;31.50;99.90;;;;;;20954250;28;20043;-82
2022/08/29 13:03:35;;;;;;;5.07;2.58;;;32.10;99.90;;;;;;20954698;28;20052;-83
2022/08/29 13:13:36;;;;;;;3.30;2.30;;;32.70;99.90;;;;;;20952816;28;20059;-83
2022/08/29 13:23:46;;;;;;;5.10;2.35;;;31.80;99.90;;;;;;20952882;28;20040;-83
2022/08/29 13:33:50;;;;;;;2.80;2.03;;;32.30;99.90;;;;;;20952490;28;20044;-83
2022/08/29 13:43:51;;;;;;;4.57;2.75;;;32.10;99.90;;;;;;20986640;28;20091;-84
2022/08/29 13:53:52;;;;;;;2.83;2.20;;;31.90;99.90;;;;;;20951541;28;20040;-85
2022/08/29 14:03:54;;;;;;;4.85;2.08;;;31.70;99.90;;;;;;20950926;28;20124;-84
2022/08/29 14:13:55;;;;;;;3.75;2.40;;;31.90;99.90;;;;;;20950986;28;20044;-84
2022/08/29 14:23:56;;;;;;;2.88;2.00;;;31.50;99.90;;;;;;20963659;28;20033;-85
2022/08/29 14:33:57;;;;;;;3.47;2.05;;;31.40;99.90;;;;;;21000610;28;20512;-85
2022/08/29 14:43:58;;;;;;;3.22;2.00;;;31.60;99.90;;;;;;20999928;28;20484;-84
2022/08/29 14:53:59;;;;;;;3.95;1.95;;;31.80;99.90;;;;;;20980972;28;20040;-85
2022/08/29 15:04:00;;;;;;;3.53;2.63;;;31.60;99.90;;;;;;20980388;28;20055;-85
2022/08/29 15:14:02;;;;;;;2.90;2.08;;;31.00;99.90;;;;;;20997371;28;20037;-84
2022/08/29 15:24:04;;;;;;;4.88;2.33;;;31.00;99.90;;;;;;20979017;28;20114;-84
2022/08/29 15:34:05;;;;;;;4.05;1.85;;;30.80;99.90;;;;;;20977580;28;20068;-84
2022/08/29 15:44:06;;;;;;;2.42;1.40;;;30.60;99.90;;;;;;20968476;28;20036;-83
2022/08/29 15:54:07;;;;;;;2.10;1.73;;;30.50;99.90;;;;;;20967489;28;20090;-84
2022/08/29 16:04:09;;;;;;;3.03;2.00;;;30.30;99.90;;;;;;20967478;28;20127;-85
2022/08/29 16:14:10;;;;;;;4.38;2.10;;;29.50;99.90;;;;;;20978879;28;20512;-84
2022/08/29 16:24:11;;;;;;;3.88;2.15;;;28.90;99.90;;;;;;20990091;28;20059;-85
2022/08/29 16:34:12;;;;;;;2.47;2.10;;;28.60;99.90;;;;;;20970546;28;20535;-84
2022/08/29 16:44:13;;;;;;;2.03;1.75;;;28.30;99.90;;;;;;21011259;28;20037;-84
2022/08/29 16:54:15;;;;;;;3.83;2.10;;;28.40;99.90;;;;;;20953252;28;20040;-84
2022/08/29 17:04:22;;;;;;;5.55;2.10;;;27.70;99.90;;;;;;20986787;28;20041;-84
2022/08/29 17:24:25;;;;;;;4.95;2.05;;;26.60;99.90;;;;;;20975219;28;20058;-84
2022/08/29 17:34:26;;;;;;;4.20;1.80;;;26.50;99.90;;;;;;20969178;28;20131;-84
2022/08/29 17:44:27;;;;;;;5.38;2.28;;;26.20;99.90;;;;;;20983896;28;20497;-84
2022/08/29 17:54:28;;;;;;;5.18;2.40;;;25.80;99.90;;;;;;20957069;28;20517;-84
2022/08/29 18:04:30;;;;;;;7.63;2.58;;;25.50;99.90;;;;;;20994656;22;20049;-77
2022/08/29 18:14:31;;;;;;;2.83;2.25;;;25.10;99.90;;;;;;20919774;28;20037;-76
2022/08/29 18:24:33;;;;;;;;;;;24.50;99.90;;;;;;20916976;28;20060;-76
2022/08/29 18:34:34;;;;;;;3.05;2.20;;;24.20;99.90;;;;;;20917130;28;19916;-75
2022/08/29 18:44:35;;;;;;;3.83;2.77;;;23.70;99.90;;;;;;20916602;28;20570;-76
2022/08/29 18:54:36;;;;;;;5.35;2.92;;;23.50;99.90;;;;;;20914173;28;20044;-75
2022/08/29 19:04:37;;;;;;;5.10;2.80;;;23.20;99.90;;;;;;20896175;28;20065;-77
2022/08/29 19:14:38;;;;;;;6.28;2.70;;;23.10;99.90;;;;;;20916522;28;20041;-77
2022/08/29 19:24:39;;;;;;;6.47;3.00;;;22.90;99.90;;;;;;20916112;28;20033;-77
2022/08/29 19:34:40;;;;;;;7.90;3.33;;;22.60;99.90;;;;;;20899344;28;20039;-78
2022/08/29 19:44:40;;;;;;;7.83;3.13;;;22.30;99.90;;;;;;20914791;28;20037;-77
2022/08/29 19:54:41;;;;;;;4.60;3.40;;;22.20;99.90;;;;;;20903050;28;20041;-76
2022/08/29 20:04:42;;;;;;;3.90;3.00;;;22.00;99.90;;;;;;20900430;28;20526;-77
2022/08/29 20:14:43;;;;;;;9.07;3.60;;;21.80;99.90;;;;;;20910474;28;20037;-77
2022/08/29 20:24:44;;;;;;;7.97;3.87;;;21.60;99.90;;;;;;20909211;28;20271;-77
2022/08/29 20:34:45;;;;;;;5.33;4.07;;;21.30;99.90;;;;;;20909214;28;20028;-77
2022/08/29 20:44:46;;;;;;;6.43;4.27;;;21.40;99.90;;;;;;20907401;28;20036;-77
2022/08/29 20:54:47;;;;;;;5.67;4.03;;;21.30;99.90;;;;;;20906396;28;20035;-77
2022/08/29 21:15:07;;;;;;;7.80;4.85;;;20.80;99.90;;;;;;20904146;28;20033;-77
2022/08/29 21:25:08;;;;;;;5.47;4.30;;;20.50;99.90;;;;;;20887553;28;20040;-77
2022/08/29 21:35:09;;;;;;;9.97;4.90;;;20.30;99.90;;;;;;20922014;28;20462;-77
2022/08/29 21:45:10;;;;;;;10.93;4.33;;;20.10;99.90;;;;;;20920674;28;20433;-77
2022/08/29 21:55:11;;;;;;;6.47;4.80;;;20.00;99.90;;;;;;20920165;28;20068;-77
2022/08/29 22:05:13;;;;;;;7.57;4.50;;;20.20;99.90;;;;;;20921309;28;20029;-77
2022/08/29 22:25:35;;;;;;;8.55;4.88;;;20.10;99.90;;;;;;20920516;28;20037;-77
2022/08/29 22:35:36;;;;;;;6.93;4.55;;;20.10;99.90;;;;;;20919029;28;20399;-77
2022/08/29 22:45:39;;;;;;;7.90;4.80;;;20.00;99.90;;;;;;20898952;28;20041;-77
2022/08/29 22:55:41;;;;;;;6.25;4.30;;;19.90;99.90;;;;;;20917730;28;20380;-77
2022/08/29 23:05:41;;;;;;;;;;;19.80;99.90;;;;;;20917015;28;20041;-77
2022/08/29 23:15:42;;;;;;;8.03;4.50;;;19.80;99.90;;;;;;20916033;28;19924;-77
2022/08/29 23:25:43;;;;;;;12.00;4.67;;;19.70;99.90;;;;;;20915206;28;20119;-77
2022/08/29 23:35:44;;;;;;;9.33;5.30;;;19.70;99.90;;;;;;20914827;28;20116;-77
2022/08/29 23:45:45;;;;;;;7.67;3.97;;;19.60;99.90;;;;;;20913786;28;20044;-77
2022/08/29 23:55:46;;;;;;;6.03;4.73;;;19.50;99.90;;;;;;20912426;28;20033;-77
